Details From SVMI - Caracas Simon Bolivar Intl
To MUCL - Vilo Acuna Intl
Flight Number -
Tags Decoded
Created
Modified
Stats Distance 1,073 nm / 1,987 km
Max Altitude 0 ft / 0 m
Waypoints 6
Social Downloads 3
Likes 0
Share VATSIM

Download

Looking for another format? Having issues loading an existing format? Contact us
Advertisement - Login to hide

Notes

Decoded

Route

MIQ PJG ABA MLY SIA UCL

ID Type Via Altitude Latitude Longitude Leg Dist Tot Dist Heading (true) Name
O MIQ NDB - 0 ft / 0 m 10.61086˚ -66.98425˚ - 0 nm - -
PJG VOR - 0 ft / 0 m 12.20028˚ -69.01000˚ 152 nm 152 nm 309° / 308° CURACAO VOR-DME
ABA VOR - 0 ft / 0 m 12.50567˚ -69.94311˚ 57 nm 210 nm 289° / 288° ARUBA VOR-DME
MLY VOR - 0 ft / 0 m 17.93025˚ -76.77764˚ 512 nm 723 nm 310° / 308° MANLEY VOR-DME
SIA VOR - 0 ft / 0 m 18.50106˚ -77.92411˚ 73 nm 797 nm 298° / 297° SANGSTER VOR-DME
O UCL VOR - 0 ft / 0 m 21.60503˚ -81.53269˚ 276 nm 1073 nm 313° / 312° CAYO LARGO DEL SU VOR-DME

Altitude Profile

Advertisement - Login to hide

Weather


0- 5 10 15 20 25 30 35+ Temperature / ° C

Clouds and Precipitation
Forecast for 2017-12-14 12:00 UTC. Updated an hour ago

Ground ~20,000 ft ~40,000 ft Winds

SVMI

Details ICAO SVMI (CCS)
Name Caracas Simon Bolivar Intl
Region Venezuela
Timezone America/Caracas (UTC-4.0)
Stats Elevation 235 ft / 72 m (AMSL)
Location 10.603119° -66.990585°
Runways 2
Magnetic Variation 12.288° W

METAR

SVMI 141000Z 00000KT 9999 FEW016 23/20 Q1011

Decode

TAF

Not found

Departure Runways

ID Width Length Bearing (true) Bearing (mag) Surface Threshold Offset Overrun Length
09 145 ft / 44 m 9,825 ft / 2,995 m 75.92° 88.21° Asphalt 0 ft / 0 m 0 ft / 0 m
10 148 ft / 45 m 11,472 ft / 3,497 m 88.14° 100.43° Asphalt 0 ft / 0 m 200 ft / 61 m
27 145 ft / 44 m 9,825 ft / 2,995 m 255.92° 268.21° Asphalt 0 ft / 0 m 0 ft / 0 m
28 148 ft / 45 m 11,472 ft / 3,497 m 268.15° 280.44° Asphalt 0 ft / 0 m 200 ft / 61 m

MUCL

Details ICAO MUCL (CYO)
Name VILO ACUNA INTL
Region Cuba
Timezone America/Havana (UTC-5.0)
Stats Elevation 10 ft / 3 m (AMSL)
Location 21.616452° -81.546000°
Runways 1
Magnetic Variation 5.234° W

METAR

MUCL 141005Z AUTO 07008KT 20/16 Q1016

Decode

TAF

Not found

Destination Runways

ID Width Length Bearing (true) Bearing (mag) Surface Threshold Offset Overrun Length
12 148 ft / 45 m 9,868 ft / 3,008 m 116.16° 121.39° Asphalt 0 ft / 0 m 197 ft / 60 m
30 148 ft / 45 m 9,868 ft / 3,008 m 296.17° 301.40° Asphalt 0 ft / 0 m 197 ft / 60 m